createdAt,value
2018-06-09T00:02:13.441Z,72.50
2018-06-09T00:04:43.237Z,73.90
2018-06-09T00:07:12.477Z,73.10
2018-06-09T00:09:42.602Z,71.10
2018-06-09T00:12:13.495Z,70.10
2018-06-09T00:14:42.740Z,71.70
2018-06-09T00:17:12.871Z,69.80
2018-06-09T00:19:42.254Z,68.80
2018-06-09T00:22:11.540Z,69.60
2018-06-09T00:27:10.545Z,70.00
2018-06-09T00:29:40.608Z,71.10
2018-06-09T00:32:10.029Z,76.20
2018-06-09T00:34:39.248Z,73.80
2018-06-09T00:37:10.946Z,76.90
2018-06-09T00:42:09.381Z,73.20
2018-06-09T00:44:38.624Z,72.60
2018-06-09T00:47:08.921Z,71.70
2018-06-09T00:49:40.175Z,72.00
2018-06-09T00:52:09.581Z,71.40
2018-06-09T00:54:39.116Z,71.90
2018-06-09T00:57:08.363Z,71.70
2018-06-09T00:59:37.605Z,74.40
2018-06-09T01:02:07.136Z,77.40
2018-06-09T01:04:36.467Z,76.90
2018-06-09T01:07:06.533Z,75.40
2018-06-09T01:09:35.774Z,72.30
2018-06-09T01:12:08.008Z,72.10
2018-06-09T01:17:07.045Z,71.70
2018-06-09T01:19:36.570Z,71.90
2018-06-09T01:22:06.075Z,74.00
2018-06-09T01:24:36.361Z,76.90
2018-06-09T01:27:05.736Z,74.50
2018-06-09T01:29:35.352Z,80.30
2018-06-09T01:32:04.588Z,81.10
2018-06-09T01:34:33.956Z,81.30
2018-06-09T01:37:03.284Z,82.10
2018-06-09T01:39:33.005Z,84.40
2018-06-09T01:42:02.534Z,83.70
2018-06-09T01:44:31.801Z,85.00
2018-06-09T01:47:01.612Z,84.80
2018-06-09T01:49:31.044Z,86.30
2018-06-09T01:52:00.581Z,85.20
2018-06-09T01:54:29.867Z,86.50
2018-06-09T01:56:59.719Z,85.80
2018-06-09T01:59:28.972Z,86.70
2018-06-09T02:01:58.734Z,86.70
2018-06-09T02:04:28.140Z,86.40
2018-06-09T02:06:57.600Z,86.00
2018-06-09T02:09:26.836Z,88.30
2018-06-09T02:11:56.225Z,87.70
2018-06-09T02:14:25.452Z,88.60
2018-06-09T02:16:54.751Z,88.40
2018-06-09T02:19:24.464Z,88.50
2018-06-09T02:21:54.016Z,87.00
2018-06-09T02:24:23.263Z,90.20
2018-06-09T02:26:52.515Z,90.00
2018-06-09T02:29:21.761Z,90.00
2018-06-09T02:31:52.114Z,90.80
2018-06-09T02:34:21.360Z,90.00
2018-06-09T02:36:50.588Z,90.00
2018-06-09T02:39:19.840Z,90.40
2018-06-09T02:41:49.217Z,90.50
2018-06-09T02:44:18.437Z,91.20
2018-06-09T02:46:47.691Z,91.50
2018-06-09T02:49:16.938Z,91.70
2018-06-09T02:51:46.939Z,90.90
2018-06-09T02:54:16.168Z,91.90
2018-06-09T02:56:45.416Z,92.50
2018-06-09T02:59:14.649Z,90.40
2018-06-09T03:01:43.881Z,91.70
2018-06-09T03:04:13.279Z,91.90
2018-06-09T03:06:42.530Z,93.40
2018-06-09T03:09:11.773Z,93.00
2018-06-09T03:11:41.038Z,93.00
2018-06-09T03:14:10.287Z,92.40
2018-06-09T03:16:39.545Z,93.00
2018-06-09T03:19:08.821Z,92.60
2018-06-09T03:21:38.044Z,92.90
2018-06-09T03:24:07.276Z,92.60
2018-06-09T03:26:36.901Z,92.40
2018-06-09T03:29:06.145Z,93.40
2018-06-09T03:31:35.376Z,92.20
2018-06-09T03:34:04.957Z,92.20
2018-06-09T03:36:34.232Z,93.30
2018-06-09T03:39:05.060Z,92.80
2018-06-09T03:41:34.418Z,92.50
2018-06-09T03:44:03.790Z,92.90
2018-06-09T03:46:33.120Z,94.40
2018-06-09T03:49:02.817Z,92.00
2018-06-09T03:51:32.076Z,92.40
2018-06-09T03:54:03.360Z,93.70
2018-06-09T03:56:32.636Z,93.60
2018-06-09T03:59:01.877Z,93.10
2018-06-09T04:01:31.228Z,92.40
2018-06-09T04:04:00.448Z,92.50
2018-06-09T04:06:29.676Z,91.70
2018-06-09T04:08:59.447Z,91.50
2018-06-09T04:11:28.676Z,91.20
2018-06-09T04:13:58.584Z,91.80
2018-06-09T04:16:27.840Z,93.00
2018-06-09T04:18:57.091Z,93.20
2018-06-09T04:21:26.332Z,92.60
2018-06-09T04:23:55.588Z,92.10
2018-06-09T04:26:24.824Z,92.10
2018-06-09T04:28:54.040Z,93.50
2018-06-09T04:31:24.172Z,93.50
2018-06-09T04:33:53.413Z,92.30
2018-06-09T04:36:23.049Z,92.40
2018-06-09T04:38:52.324Z,92.90
2018-06-09T04:41:22.136Z,93.20
2018-06-09T04:43:51.820Z,92.30
2018-06-09T04:46:21.049Z,93.70
2018-06-09T04:48:50.276Z,94.30
2018-06-09T04:51:19.518Z,93.60
2018-06-09T04:53:49.019Z,92.40
2018-06-09T04:56:18.376Z,92.70
2018-06-09T04:58:47.617Z,92.40
2018-06-09T05:01:16.890Z,92.50
2018-06-09T05:03:46.760Z,92.30
2018-06-09T05:06:16.760Z,92.10
2018-06-09T05:08:46.340Z,93.40
2018-06-09T05:11:15.618Z,92.70
2018-06-09T05:13:44.832Z,93.00
2018-06-09T05:16:14.464Z,93.80
2018-06-09T05:18:43.845Z,93.10
2018-06-09T05:21:14.932Z,93.40
2018-06-09T05:23:44.214Z,92.70
2018-06-09T05:26:14.191Z,92.40
2018-06-09T05:28:44.459Z,93.50
2018-06-09T05:31:13.709Z,93.50
2018-06-09T05:33:42.944Z,93.30
2018-06-09T05:36:12.499Z,92.50
2018-06-09T05:41:10.988Z,93.10
2018-06-09T05:43:40.233Z,92.40
2018-06-09T05:46:09.500Z,92.60
2018-06-09T05:48:38.860Z,92.20
2018-06-09T05:51:08.093Z,92.50
2018-06-09T05:53:37.372Z,92.20
2018-06-09T05:56:06.721Z,91.70
2018-06-09T05:58:36.332Z,92.00
2018-06-09T06:01:05.900Z,92.20
2018-06-09T06:03:35.473Z,91.90
2018-06-09T06:06:04.708Z,90.90
2018-06-09T06:08:33.972Z,91.00
2018-06-09T06:11:03.244Z,90.50
2018-06-09T06:13:32.485Z,90.50
2018-06-09T06:16:02.637Z,90.40
2018-06-09T06:18:34.123Z,90.10
2018-06-09T06:21:04.567Z,90.20
2018-06-09T06:23:33.774Z,90.00
2018-06-09T06:26:03.253Z,90.30
2018-06-09T06:28:32.496Z,90.00
2018-06-09T06:31:01.721Z,90.00
2018-06-09T06:36:00.214Z,89.60
2018-06-09T06:38:29.432Z,88.90
2018-06-09T06:40:59.076Z,87.90
2018-06-09T06:43:28.656Z,87.40
2018-06-09T06:45:57.878Z,87.30
2018-06-09T06:48:27.095Z,86.60
2018-06-09T06:50:56.364Z,86.40
2018-06-09T06:53:25.568Z,85.90
2018-06-09T06:55:54.792Z,84.60
2018-06-09T06:58:24.085Z,84.40
2018-06-09T07:00:53.324Z,84.50
2018-06-09T07:03:22.548Z,84.70
2018-06-09T07:05:52.041Z,84.10
2018-06-09T07:10:50.524Z,84.50
2018-06-09T07:13:19.760Z,83.50
2018-06-09T07:15:48.997Z,83.50
2018-06-09T07:18:18.224Z,82.80
2018-06-09T07:23:16.949Z,83.60
2018-06-09T07:25:46.152Z,82.40
2018-06-09T07:28:15.628Z,82.80
2018-06-09T07:30:45.098Z,82.40
2018-06-09T07:33:14.403Z,80.90
2018-06-09T07:35:43.636Z,80.60
2018-06-09T07:38:13.601Z,80.20
2018-06-09T07:40:43.110Z,79.80
2018-06-09T07:43:12.336Z,79.90
2018-06-09T07:45:41.780Z,79.30
2018-06-09T07:48:11.149Z,79.30
2018-06-09T07:50:40.973Z,78.80
2018-06-09T07:53:10.301Z,78.50
2018-06-09T07:55:39.542Z,77.90
2018-06-09T07:58:09.432Z,78.30
2018-06-09T08:00:39.463Z,78.60
2018-06-09T08:03:08.671Z,78.80
2018-06-09T08:05:39.245Z,77.10
2018-06-09T08:08:08.696Z,76.70
2018-06-09T08:10:38.248Z,76.40
2018-06-09T08:13:08.152Z,76.60
2018-06-09T08:15:37.688Z,75.80
2018-06-09T08:20:36.229Z,73.30
2018-06-09T08:23:05.451Z,71.50
2018-06-09T08:25:34.728Z,71.30
2018-06-09T08:28:04.008Z,71.00
2018-06-09T08:30:33.264Z,70.90
2018-06-09T08:33:03.526Z,70.50
2018-06-09T08:35:33.252Z,71.00
2018-06-09T08:38:02.674Z,70.90
2018-06-09T08:40:31.940Z,71.80
2018-06-09T08:43:01.358Z,72.60
2018-06-09T08:45:30.608Z,70.60
2018-06-09T08:48:00.145Z,71.50
2018-06-09T08:50:29.831Z,71.70
2018-06-09T08:52:59.056Z,71.50
2018-06-09T08:55:28.301Z,71.90
2018-06-09T08:58:00.051Z,70.10
2018-06-09T09:00:31.660Z,68.80
2018-06-09T09:03:01.836Z,68.90
2018-06-09T09:05:31.093Z,70.10
2018-06-09T09:08:00.409Z,69.60
2018-06-09T09:10:30.030Z,70.60
2018-06-09T09:12:59.252Z,70.20
2018-06-09T09:15:30.752Z,70.10
2018-06-09T09:18:00.580Z,69.20
2018-06-09T09:20:30.003Z,67.80
2018-06-09T09:22:59.629Z,68.50
2018-06-09T09:25:28.910Z,67.50
2018-06-09T09:27:58.125Z,66.70
2018-06-09T09:30:27.338Z,65.60
2018-06-09T09:32:56.622Z,65.90
2018-06-09T09:35:25.847Z,67.00
2018-06-09T09:37:55.368Z,65.10
2018-06-09T09:42:54.796Z,66.10
2018-06-09T09:47:52.868Z,65.90
2018-06-09T09:55:21.396Z,61.80
2018-06-09T09:57:57.473Z,61.40
2018-06-09T10:00:32.800Z,61.40
2018-06-09T10:03:02.058Z,62.80
2018-06-09T10:05:31.511Z,60.00
2018-06-09T10:08:00.812Z,59.70
2018-06-09T10:10:30.258Z,59.50
2018-06-09T10:12:59.742Z,59.00
2018-06-09T10:15:29.080Z,59.90
2018-06-09T10:17:58.796Z,58.50
2018-06-09T10:20:29.432Z,58.50
2018-06-09T10:25:28.091Z,57.60
2018-06-09T10:27:58.619Z,56.30
2018-06-09T10:30:27.947Z,56.90
2018-06-09T10:32:57.217Z,57.90
2018-06-09T10:35:26.881Z,55.40
2018-06-09T10:37:56.240Z,55.40
2018-06-09T10:40:25.616Z,56.10
2018-06-09T10:42:55.012Z,54.90
2018-06-09T10:45:29.620Z,55.90
2018-06-09T10:47:58.840Z,56.30
2018-06-09T10:50:28.208Z,56.10
2018-06-09T10:52:57.549Z,55.10
2018-06-09T10:55:26.770Z,54.30
2018-06-09T10:57:56.244Z,54.80
2018-06-09T11:00:25.857Z,53.80
2018-06-09T11:02:56.014Z,54.10
2018-06-09T11:05:25.992Z,53.10
2018-06-09T11:07:55.314Z,51.20
2018-06-09T11:10:24.703Z,50.00
2018-06-09T11:12:53.949Z,49.20
2018-06-09T11:15:23.200Z,50.50
2018-06-09T11:17:52.580Z,49.00
2018-06-09T11:20:22.206Z,49.10
2018-06-09T11:22:51.814Z,49.70
2018-06-09T11:25:21.133Z,51.40
2018-06-09T11:27:50.384Z,50.10
2018-06-09T11:30:20.204Z,50.20
2018-06-09T11:32:49.625Z,50.90
2018-06-09T11:35:19.864Z,48.80
2018-06-09T11:37:50.523Z,48.30
2018-06-09T11:40:20.167Z,49.70
2018-06-09T11:45:18.361Z,48.00
2018-06-09T11:47:47.741Z,48.50
2018-06-09T11:50:17.188Z,47.90
2018-06-09T11:52:46.708Z,47.80
2018-06-09T11:55:16.036Z,44.20
2018-06-09T11:57:46.016Z,43.50
2018-06-09T12:00:15.387Z,42.20
2018-06-09T12:02:44.603Z,41.60
2018-06-09T12:05:13.943Z,38.40
2018-06-09T12:07:43.277Z,39.20
2018-06-09T12:10:13.359Z,41.10
2018-06-09T12:12:42.726Z,41.50
2018-06-09T12:15:12.104Z,41.30
2018-06-09T12:17:41.634Z,42.70
2018-06-09T12:20:10.909Z,44.00
2018-06-09T12:22:40.196Z,44.60
2018-06-09T12:25:13.606Z,48.20
2018-06-09T12:27:42.861Z,42.30
2018-06-09T12:30:12.093Z,40.20
2018-06-09T12:32:41.445Z,40.70
2018-06-09T12:35:11.156Z,39.60
2018-06-09T12:37:40.437Z,40.50
2018-06-09T12:40:09.834Z,41.50
2018-06-09T12:45:08.182Z,43.70
2018-06-09T12:47:37.405Z,39.30
2018-06-09T12:50:07.260Z,35.70
2018-06-09T12:52:36.779Z,34.10
2018-06-09T12:55:06.079Z,33.40
2018-06-09T12:57:35.624Z,35.20
2018-06-09T13:00:04.940Z,36.50
2018-06-09T13:02:34.426Z,37.90
2018-06-09T13:05:04.241Z,37.80
2018-06-09T13:07:33.633Z,39.00
2018-06-09T13:10:03.156Z,39.60
2018-06-09T13:12:32.663Z,39.70
2018-06-09T13:15:02.019Z,41.50
2018-06-09T13:17:31.277Z,38.30
2018-06-09T13:20:01.659Z,37.80
2018-06-09T13:22:30.876Z,37.00
2018-06-09T13:25:00.129Z,36.70
2018-06-09T13:27:29.440Z,36.50
2018-06-09T13:29:58.652Z,36.60
2018-06-09T13:32:27.888Z,37.20
2018-06-09T13:34:57.353Z,37.70
2018-06-09T13:37:26.581Z,37.30
2018-06-09T13:39:56.872Z,37.70
2018-06-09T13:42:26.841Z,38.20
2018-06-09T13:44:56.116Z,37.80
2018-06-09T13:47:25.401Z,38.80
2018-06-09T13:49:54.692Z,39.60
2018-06-09T13:52:25.219Z,39.80
2018-06-09T13:54:54.554Z,39.90
2018-06-09T13:57:29.492Z,39.70
2018-06-09T13:59:59.256Z,41.20
2018-06-09T14:02:28.660Z,42.20
2018-06-09T14:04:58.172Z,43.20
2018-06-09T14:07:27.453Z,43.30
2018-06-09T14:09:56.793Z,43.50
2018-06-09T14:12:28.385Z,43.60
2018-06-09T14:14:57.951Z,44.00
2018-06-09T14:17:27.798Z,44.90
2018-06-09T14:19:58.267Z,44.40
2018-06-09T14:22:28.828Z,44.60
2018-06-09T14:24:58.099Z,44.60
2018-06-09T14:27:27.400Z,45.00
2018-06-09T14:29:56.764Z,45.20
2018-06-09T14:32:26.382Z,45.00
2018-06-09T14:34:56.274Z,45.00
2018-06-09T14:37:27.008Z,44.80
2018-06-09T14:39:56.367Z,44.70
2018-06-09T14:42:25.685Z,44.80
2018-06-09T14:44:55.348Z,44.70
2018-06-09T14:47:24.901Z,44.90
2018-06-09T14:49:54.169Z,45.00
2018-06-09T14:52:24.800Z,45.30
2018-06-09T14:54:54.300Z,46.10
2018-06-09T14:57:24.824Z,46.70
2018-06-09T14:59:54.216Z,47.20
2018-06-09T15:02:24.106Z,47.20
2018-06-09T15:04:54.632Z,46.90
2018-06-09T15:07:24.488Z,46.70
2018-06-09T15:09:53.893Z,47.60
2018-06-09T15:12:23.404Z,47.90
2018-06-09T15:14:52.700Z,48.80
2018-06-09T15:17:22.853Z,48.90
2018-06-09T15:19:52.320Z,49.40
2018-06-09T15:22:22.074Z,50.00
2018-06-09T15:24:51.477Z,49.90
2018-06-09T15:27:20.760Z,50.10
2018-06-09T15:29:51.375Z,50.30
2018-06-09T15:32:20.913Z,50.20
2018-06-09T15:34:50.215Z,50.50
2018-06-09T15:37:19.539Z,50.30
2018-06-09T15:39:48.785Z,50.10
2018-06-09T15:42:18.337Z,50.20
2018-06-09T15:44:48.284Z,49.80
2018-06-09T15:47:18.256Z,43.40
2018-06-09T15:49:47.571Z,44.00
2018-06-09T15:52:16.855Z,44.90
2018-06-09T15:54:46.101Z,46.00
2018-06-09T15:57:15.455Z,47.00
2018-06-09T15:59:45.991Z,48.20
2018-06-09T16:02:15.250Z,48.30
2018-06-09T16:04:44.594Z,48.70
2018-06-09T16:07:14.197Z,49.70
2018-06-09T16:09:43.394Z,50.00
2018-06-09T16:12:12.797Z,50.70
2018-06-09T16:14:42.437Z,50.70
2018-06-09T16:17:11.689Z,50.40
2018-06-09T16:19:41.311Z,50.50
2018-06-09T16:22:11.840Z,50.10
2018-06-09T16:24:42.326Z,50.20
2018-06-09T16:27:11.644Z,50.80
2018-06-09T16:29:41.029Z,50.80
2018-06-09T16:32:10.923Z,50.80
2018-06-09T16:34:40.159Z,51.00
2018-06-09T16:37:09.428Z,50.80
2018-06-09T16:39:38.813Z,51.50
2018-06-09T16:42:08.053Z,51.70
2018-06-09T16:44:37.349Z,50.90
2018-06-09T16:47:07.003Z,50.40
2018-06-09T16:49:38.616Z,49.40
2018-06-09T16:52:08.040Z,49.30
2018-06-09T16:54:37.377Z,49.20
2018-06-09T16:57:06.641Z,49.20
2018-06-09T16:59:36.868Z,50.20
2018-06-09T17:02:06.246Z,50.30
2018-06-09T17:04:35.864Z,50.40
2018-06-09T17:07:05.191Z,51.30
2018-06-09T17:09:34.660Z,51.50
2018-06-09T17:12:03.960Z,51.70
2018-06-09T17:14:33.255Z,51.30
2018-06-09T17:17:03.400Z,51.40
2018-06-09T17:19:32.976Z,51.70
2018-06-09T17:22:02.346Z,52.20
2018-06-09T17:24:31.796Z,52.30
2018-06-09T17:27:01.401Z,54.10
2018-06-09T17:29:31.163Z,54.00
2018-06-09T17:32:00.537Z,53.30
2018-06-09T17:34:31.195Z,52.40
2018-06-09T17:37:00.878Z,51.70
2018-06-09T17:39:30.314Z,52.50
2018-06-09T17:42:00.869Z,52.40
2018-06-09T17:44:30.129Z,50.60
2018-06-09T17:47:00.466Z,49.20
2018-06-09T17:49:29.989Z,48.80
2018-06-09T17:51:59.529Z,47.10
2018-06-09T17:54:28.776Z,46.20
2018-06-09T17:56:58.082Z,46.20
2018-06-09T17:59:27.340Z,45.10
2018-06-09T18:01:56.770Z,45.90
2018-06-09T18:04:26.425Z,47.10
2018-06-09T18:06:56.040Z,49.00
2018-06-09T18:09:25.560Z,50.50
2018-06-09T18:11:54.996Z,50.40
2018-06-09T18:14:24.465Z,51.00
2018-06-09T18:16:54.084Z,51.10
2018-06-09T18:19:23.472Z,51.40
2018-06-09T18:21:53.004Z,52.20
2018-06-09T18:24:22.292Z,51.60
2018-06-09T18:26:51.664Z,53.10
2018-06-09T18:29:21.239Z,52.90
2018-06-09T18:31:50.536Z,53.20
2018-06-09T18:36:52.775Z,53.20
2018-06-09T18:39:22.540Z,53.50
2018-06-09T18:41:52.221Z,54.70
2018-06-09T18:44:21.444Z,56.00
2018-06-09T18:46:50.934Z,56.50
2018-06-09T18:49:20.308Z,57.30
2018-06-09T18:51:49.849Z,57.90
2018-06-09T18:54:19.228Z,56.40
2018-06-09T18:56:48.752Z,57.80
2018-06-09T18:59:18.028Z,58.50
2018-06-09T19:01:49.156Z,59.20
2018-06-09T19:04:18.646Z,59.00
2018-06-09T19:06:49.045Z,62.10
2018-06-09T19:09:18.537Z,62.80
2018-06-09T19:11:48.860Z,60.50
2018-06-09T19:14:18.149Z,62.20
2018-06-09T19:16:48.705Z,61.50
2018-06-09T19:19:17.948Z,64.00
2018-06-09T19:24:16.234Z,62.30
2018-06-09T19:29:15.768Z,64.00
2018-06-09T19:31:45.076Z,64.90
2018-06-09T19:34:14.393Z,66.40
2018-06-09T19:36:45.855Z,67.30
2018-06-09T19:39:15.180Z,67.60
2018-06-09T19:41:44.758Z,69.30
2018-06-09T19:44:14.036Z,70.90
2018-06-09T19:46:43.364Z,70.50
2018-06-09T19:49:12.895Z,69.80
2018-06-09T19:51:42.101Z,72.30
2018-06-09T19:54:11.560Z,72.20
2018-06-09T19:56:40.788Z,69.90
2018-06-09T19:59:10.001Z,70.50
2018-06-09T20:01:39.552Z,71.80
2018-06-09T20:04:08.790Z,71.50
2018-06-09T20:06:38.002Z,73.00
2018-06-09T20:09:08.534Z,74.50
2018-06-09T20:11:38.692Z,79.90
2018-06-09T20:14:07.939Z,79.30
2018-06-09T20:16:37.198Z,79.20
2018-06-09T20:19:07.421Z,80.10
2018-06-09T20:21:36.788Z,78.90
2018-06-09T20:24:06.119Z,77.70
2018-06-09T20:26:35.396Z,79.80
2018-06-09T20:31:33.581Z,79.20
2018-06-09T20:34:02.825Z,78.60
2018-06-09T20:36:32.156Z,79.30
2018-06-09T20:39:01.505Z,83.20
2018-06-09T20:41:30.829Z,79.80
2018-06-09T20:44:00.368Z,78.80
2018-06-09T20:46:29.684Z,82.40
2018-06-09T20:48:59.643Z,80.60
2018-06-09T20:51:28.906Z,83.20
2018-06-09T20:53:58.673Z,82.50
2018-06-09T20:56:28.064Z,83.00
2018-06-09T20:58:58.281Z,82.80
2018-06-09T21:01:27.919Z,84.30
2018-06-09T21:03:57.132Z,84.10
2018-06-09T21:06:26.390Z,83.20
2018-06-09T21:08:55.807Z,82.80
2018-06-09T21:11:25.037Z,83.30
2018-06-09T21:13:55.342Z,84.20
2018-06-09T21:16:25.140Z,86.60
2018-06-09T21:18:54.380Z,85.20
2018-06-09T21:21:27.525Z,85.00
2018-06-09T21:23:56.820Z,85.50
2018-06-09T21:26:30.312Z,85.70
2018-06-09T21:29:00.120Z,86.20
2018-06-09T21:31:38.996Z,86.50
2018-06-09T21:34:27.169Z,88.40
2018-06-09T21:36:56.469Z,86.80
2018-06-09T21:39:33.200Z,87.90
2018-06-09T21:42:07.853Z,86.50
2018-06-09T21:44:37.159Z,90.90
2018-06-09T21:47:06.415Z,89.40
2018-06-09T21:49:36.443Z,90.40
2018-06-09T21:52:05.912Z,89.00
2018-06-09T21:54:35.164Z,89.50
2018-06-09T21:57:04.517Z,89.40
2018-06-09T21:59:33.757Z,90.60
2018-06-09T22:02:02.985Z,90.80
2018-06-09T22:04:32.236Z,90.20
2018-06-09T22:07:02.098Z,91.10
2018-06-09T22:09:31.393Z,91.80
2018-06-09T22:12:00.881Z,91.50
2018-06-09T22:14:30.189Z,93.40
2018-06-09T22:16:59.468Z,92.30
2018-06-09T22:19:28.740Z,92.20
2018-06-09T22:21:58.813Z,92.50
2018-06-09T22:24:28.060Z,93.10
2018-06-09T22:26:57.324Z,93.30
2018-06-09T22:29:26.591Z,92.90
2018-06-09T22:31:55.845Z,93.50
2018-06-09T22:36:54.432Z,92.90
2018-06-09T22:41:52.491Z,92.80
2018-06-09T22:44:21.782Z,93.70
2018-06-09T22:46:51.052Z,94.20
2018-06-09T22:49:20.388Z,95.70
2018-06-09T22:51:50.028Z,96.60
2018-06-09T22:54:19.287Z,94.60
2018-06-09T22:56:48.588Z,93.90
2018-06-09T22:59:17.824Z,94.80
2018-06-09T23:01:47.096Z,94.90
2018-06-09T23:04:16.307Z,95.60
2018-06-09T23:06:45.496Z,96.10
2018-06-09T23:09:14.751Z,95.10
2018-06-09T23:11:43.952Z,96.70
2018-06-09T23:14:13.122Z,94.90
2018-06-09T23:16:42.318Z,94.50
2018-06-09T23:19:11.867Z,94.30
2018-06-09T23:21:41.043Z,95.40
2018-06-09T23:24:10.289Z,95.20
2018-06-09T23:26:39.719Z,94.90
2018-06-09T23:31:37.660Z,94.70
2018-06-09T23:34:06.869Z,97.90
2018-06-09T23:36:36.048Z,97.50
2018-06-09T23:39:07.082Z,96.30
2018-06-09T23:41:36.799Z,97.00
2018-06-09T23:44:06.000Z,96.70
2018-06-09T23:46:35.191Z,96.70
2018-06-09T23:49:04.391Z,98.80
2018-06-09T23:51:33.575Z,98.20
2018-06-09T23:54:03.091Z,97.50
2018-06-09T23:56:32.411Z,98.60
2018-06-09T23:59:01.615Z,98.40
